Time;durP1;ratioP1;P1;durP2;ratioP2;P2;SDS_P1;SDS_P2;PMS_P1;PMS_P2;Temp;Humidity;BMP_temperature;BMP_pressure;BME280_temperature;BME280_humidity;BME280_pressure;Samples;Min_cycle;Max_cycle;Signal;HPM_P1;HPM_P2
2021/11/19 00:02:07;;;;;;;11.82;9.45;;;12.00;99.90;;;;;;4973966;28;20039;-62
2021/11/19 00:04:33;;;;;;;15.23;9.40;;;12.00;99.90;;;;;;4974344;28;20112;-63
2021/11/19 00:06:59;;;;;;;14.45;9.23;;;12.00;99.90;;;;;;4973393;28;20042;-63
2021/11/19 00:09:26;;;;;;;17.23;9.77;;;12.00;99.90;;;;;;4974414;28;20082;-63
2021/11/19 00:11:52;;;;;;;13.18;9.00;;;12.10;99.90;;;;;;4971909;28;20474;-63
2021/11/19 00:14:20;;;;;;;20.15;10.32;;;12.10;99.90;;;;;;4973762;28;20474;-63
2021/11/19 00:16:49;;;;;;;19.20;10.20;;;12.10;99.90;;;;;;4972897;28;20046;-64
2021/11/19 00:19:15;;;;;;;15.60;9.00;;;12.10;99.90;;;;;;4973632;28;20030;-63
2021/11/19 00:21:42;;;;;;;17.58;10.63;;;12.10;99.90;;;;;;4973471;28;20122;-63
2021/11/19 00:24:09;;;;;;;15.32;10.20;;;12.10;99.90;;;;;;4974038;28;20450;-63
2021/11/19 00:26:34;;;;;;;18.42;10.52;;;12.20;99.90;;;;;;4965840;28;20022;-63
2021/11/19 00:29:00;;;;;;;19.77;12.18;;;12.10;99.90;;;;;;4974454;28;20114;-63
2021/11/19 00:31:27;;;;;;;14.75;9.60;;;12.20;99.90;;;;;;4973254;28;20030;-63
2021/11/19 00:33:55;;;;;;;14.45;9.77;;;12.20;99.90;;;;;;4973567;28;20031;-63
2021/11/19 00:36:22;;;;;;;13.93;9.27;;;12.20;99.90;;;;;;4959907;28;20038;-63
2021/11/19 00:38:49;;;;;;;14.73;9.20;;;12.30;99.90;;;;;;4972367;28;20023;-63
2021/11/19 00:41:16;;;;;;;14.10;9.70;;;12.30;99.90;;;;;;4969231;28;20494;-63
2021/11/19 00:43:42;;;;;;;13.23;9.02;;;12.30;99.90;;;;;;4956412;28;20034;-63
2021/11/19 00:46:08;;;;;;;15.45;9.45;;;12.30;99.90;;;;;;4973028;28;20027;-62
2021/11/19 00:48:35;;;;;;;17.17;9.70;;;12.20;99.90;;;;;;4974141;28;20027;-63
2021/11/19 00:51:06;;;;;;;15.02;8.75;;;12.30;99.90;;;;;;4972903;28;20159;-63
2021/11/19 00:53:34;;;;;;;14.32;8.73;;;12.30;99.90;;;;;;4970818;28;20477;-63
2021/11/19 00:55:59;;;;;;;13.90;8.95;;;12.30;99.90;;;;;;4971330;28;20457;-63
2021/11/19 00:58:25;;;;;;;13.52;8.13;;;12.20;99.90;;;;;;4972249;28;20106;-63
2021/11/19 01:00:55;;;;;;;14.43;10.13;;;12.30;99.90;;;;;;4972375;28;20026;-63
2021/11/19 01:03:22;;;;;;;17.00;9.45;;;12.30;99.90;;;;;;4973620;28;20058;-63
2021/11/19 01:05:49;;;;;;;12.80;8.75;;;12.30;99.90;;;;;;4972798;28;20033;-63
2021/11/19 01:08:14;;;;;;;16.90;9.77;;;12.30;99.90;;;;;;4972434;28;20118;-63
2021/11/19 01:10:42;;;;;;;18.25;10.57;;;12.30;99.90;;;;;;4972936;28;20118;-63
2021/11/19 01:13:08;;;;;;;16.50;9.55;;;12.30;99.90;;;;;;4973105;28;20023;-63
2021/11/19 01:15:57;;;;;;;14.98;10.07;;;12.30;99.90;;;;;;4972073;28;20109;-63
2021/11/19 01:18:34;;;;;;;14.88;9.85;;;12.30;99.90;;;;;;4953638;29;20043;-63
2021/11/19 01:21:11;;;;;;;15.82;9.57;;;12.30;99.90;;;;;;4956479;28;20127;-63
2021/11/19 01:23:37;;;;;;;21.00;9.88;;;12.30;99.90;;;;;;4973542;28;20046;-63
2021/11/19 01:26:07;;;;;;;16.77;9.73;;;12.30;99.90;;;;;;4972550;28;20034;-63
2021/11/19 01:28:33;;;;;;;17.20;10.43;;;12.30;99.90;;;;;;4973265;28;20061;-63
2021/11/19 01:31:15;;;;;;;14.85;9.70;;;12.30;99.90;;;;;;4970196;28;20070;-63
2021/11/19 01:33:42;;;;;;;16.70;9.82;;;12.30;99.90;;;;;;4963485;28;20066;-63
2021/11/19 01:36:08;;;;;;;14.20;9.73;;;12.30;99.90;;;;;;4971733;28;20030;-63
2021/11/19 01:38:34;;;;;;;13.77;10.05;;;12.30;99.90;;;;;;4971997;28;20026;-63
2021/11/19 01:41:05;;;;;;;15.57;9.88;;;12.30;99.90;;;;;;4971409;28;20093;-63
2021/11/19 01:43:32;;;;;;;15.95;9.82;;;12.40;99.90;;;;;;4972904;28;20034;-63
2021/11/19 01:46:02;;;;;;;15.80;9.20;;;12.30;99.90;;;;;;4970133;28;20042;-63
2021/11/19 01:48:35;;;;;;;17.50;9.80;;;12.40;99.90;;;;;;4973071;28;20117;-63
2021/11/19 01:51:31;;;;;;;14.73;10.90;;;12.40;99.90;;;;;;4972055;28;20035;-64
2021/11/19 01:54:09;;;;;;;13.70;9.30;;;12.40;99.90;;;;;;4955735;28;20110;-63
2021/11/19 01:56:38;;;;;;;13.18;8.90;;;12.40;99.90;;;;;;4969920;28;20095;-64
2021/11/19 01:59:17;;;;;;;12.75;9.70;;;12.40;99.90;;;;;;4973208;28;20105;-63
2021/11/19 02:01:47;;;;;;;17.23;10.10;;;12.40;99.90;;;;;;4969644;28;20082;-63
2021/11/19 02:04:17;;;;;;;16.05;9.95;;;12.40;99.90;;;;;;4972949;28;20031;-63
2021/11/19 02:06:48;;;;;;;16.33;10.73;;;12.40;99.90;;;;;;4971011;28;20466;-63
2021/11/19 02:09:28;;;;;;;14.80;9.75;;;12.40;99.90;;;;;;4963580;28;20143;-63
2021/11/19 02:12:00;;;;;;;14.07;10.50;;;12.40;99.90;;;;;;4971345;28;20041;-63
2021/11/19 02:14:48;;;;;;;16.73;10.13;;;12.40;99.90;;;;;;4972503;28;20039;-63
2021/11/19 02:17:14;;;;;;;13.73;9.32;;;12.40;99.90;;;;;;4970488;28;20042;-64
2021/11/19 02:19:46;;;;;;;14.23;10.25;;;12.40;99.90;;;;;;4971892;28;20035;-63
2021/11/19 02:22:17;;;;;;;14.93;9.00;;;12.40;99.90;;;;;;4961837;28;20035;-63
2021/11/19 02:24:52;;;;;;;18.25;10.75;;;12.50;99.90;;;;;;4972256;28;20035;-63
2021/11/19 02:27:23;;;;;;;15.80;9.75;;;12.50;99.90;;;;;;4954239;28;20114;-63
2021/11/19 02:29:56;;;;;;;16.65;10.38;;;12.50;99.90;;;;;;4972447;28;20027;-63
2021/11/19 02:32:35;;;;;;;14.85;9.80;;;12.60;99.90;;;;;;4971698;28;20363;-63
2021/11/19 02:35:04;;;;;;;13.35;9.35;;;12.60;99.90;;;;;;4972754;28;20122;-63
2021/11/19 02:37:37;;;;;;;13.75;8.43;;;12.50;99.90;;;;;;4969826;28;20481;-63
2021/11/19 02:40:08;;;;;;;13.45;8.52;;;12.50;99.90;;;;;;4970742;28;20039;-63
2021/11/19 02:42:38;;;;;;;13.02;9.95;;;12.60;99.90;;;;;;4971031;28;20459;-63
2021/11/19 02:45:11;;;;;;;13.50;9.02;;;12.60;99.90;;;;;;4971820;28;20027;-64
2021/11/19 02:47:37;;;;;;;13.95;9.07;;;12.60;99.90;;;;;;4971473;28;20031;-63
2021/11/19 02:50:04;;;;;;;15.23;9.73;;;12.60;99.90;;;;;;4970581;28;20425;-63
2021/11/19 02:52:37;;;;;;;14.57;9.45;;;12.60;99.90;;;;;;4947238;28;20031;-63
2021/11/19 02:55:08;;;;;;;13.93;10.02;;;12.70;99.90;;;;;;4971281;28;20110;-63
2021/11/19 02:57:33;;;;;;;13.57;9.02;;;12.60;99.90;;;;;;4954563;28;20038;-63
2021/11/19 02:59:59;;;;;;;13.20;9.13;;;12.70;99.90;;;;;;4970614;28;20336;-63
2021/11/19 03:02:29;;;;;;;12.23;9.02;;;12.70;99.90;;;;;;4971481;28;20068;-63
2021/11/19 03:05:07;;;;;;;16.75;9.80;;;12.70;99.90;;;;;;4971551;28;20486;-63
2021/11/19 03:07:33;;;;;;;11.77;8.48;;;12.70;99.90;;;;;;4971106;28;20031;-63
2021/11/19 03:10:03;;;;;;;14.20;10.00;;;12.70;99.90;;;;;;4970494;28;20027;-64
2021/11/19 03:12:32;;;;;;;13.43;8.63;;;12.70;99.90;;;;;;4955220;28;20621;-64
2021/11/19 03:15:01;;;;;;;12.80;9.07;;;12.70;99.90;;;;;;4971354;28;20046;-63
2021/11/19 03:17:28;;;;;;;12.25;8.65;;;12.70;99.90;;;;;;4971970;28;20034;-63
2021/11/19 03:19:55;;;;;;;12.68;8.55;;;12.70;99.90;;;;;;4971795;28;20023;-62
2021/11/19 03:22:23;;;;;;;13.07;8.75;;;12.70;99.90;;;;;;4975442;28;20402;-62
2021/11/19 03:24:49;;;;;;;12.45;8.65;;;12.80;99.90;;;;;;4974474;28;20025;-63
2021/11/19 03:27:16;;;;;;;23.48;17.40;;;12.80;99.90;;;;;;4974152;28;20031;-63
2021/11/19 03:29:44;;;;;;;14.68;9.43;;;12.80;99.90;;;;;;4974010;28;20505;-63
2021/11/19 03:32:13;;;;;;;12.32;8.63;;;12.80;99.90;;;;;;4974655;28;20035;-63
2021/11/19 03:34:38;;;;;;;13.57;7.95;;;12.80;99.90;;;;;;4974200;28;20031;-63
2021/11/19 03:37:05;;;;;;;12.93;8.45;;;12.80;99.90;;;;;;4973755;28;20510;-63
2021/11/19 03:39:31;;;;;;;14.63;8.57;;;12.80;99.90;;;;;;4974755;28;20141;-63
2021/11/19 03:41:59;;;;;;;14.40;9.07;;;12.90;99.90;;;;;;4973585;28;20034;-63
2021/11/19 03:44:31;;;;;;;13.10;8.90;;;12.90;99.90;;;;;;4974378;28;20125;-62
2021/11/19 03:47:06;;;;;;;14.35;8.63;;;12.90;99.90;;;;;;4974546;28;20044;-63
2021/11/19 03:49:33;;;;;;;12.68;8.52;;;12.90;99.90;;;;;;4975049;28;20030;-64
2021/11/19 03:52:06;;;;;;;14.50;8.50;;;12.90;99.90;;;;;;4953216;29;20035;-63
2021/11/19 03:54:34;;;;;;;11.93;8.32;;;12.90;99.90;;;;;;4974460;28;20026;-63
2021/11/19 03:57:00;;;;;;;13.30;8.82;;;12.90;99.90;;;;;;4973849;28;20491;-63
2021/11/19 03:59:26;;;;;;;13.13;9.25;;;12.90;99.90;;;;;;4974541;28;20066;-63
2021/11/19 04:01:54;;;;;;;12.45;8.88;;;12.90;99.90;;;;;;4973950;28;20031;-63
2021/11/19 04:04:22;;;;;;;12.07;8.55;;;12.90;99.90;;;;;;4965831;28;20022;-63
2021/11/19 04:06:48;;;;;;;13.48;8.93;;;12.90;99.90;;;;;;4973070;28;20036;-63
2021/11/19 04:09:14;;;;;;;13.25;8.32;;;12.90;99.90;;;;;;4974697;28;20034;-62
2021/11/19 04:11:40;;;;;;;16.55;9.18;;;12.90;99.90;;;;;;4973984;28;20489;-62
2021/11/19 04:14:06;;;;;;;15.90;9.10;;;13.00;99.90;;;;;;4974861;28;20031;-62
2021/11/19 04:16:36;;;;;;;13.77;9.25;;;13.00;99.90;;;;;;4973561;28;20367;-62
2021/11/19 04:19:03;;;;;;;15.02;8.98;;;13.00;99.90;;;;;;4974110;28;20030;-63
2021/11/19 04:21:29;;;;;;;15.48;9.38;;;13.00;99.90;;;;;;4956523;28;20027;-63
2021/11/19 04:23:55;;;;;;;13.90;10.20;;;13.00;99.90;;;;;;4973211;28;20034;-63
2021/11/19 04:26:25;;;;;;;14.77;10.02;;;13.00;99.90;;;;;;4972530;28;20116;-63
2021/11/19 04:28:50;;;;;;;15.23;9.80;;;12.90;99.90;;;;;;4972810;28;20038;-63
2021/11/19 04:31:19;;;;;;;15.77;10.63;;;12.90;99.90;;;;;;4972697;28;20497;-63
2021/11/19 04:33:45;;;;;;;16.33;10.85;;;12.90;99.90;;;;;;4974509;28;20019;-63
2021/11/19 04:36:11;;;;;;;15.63;10.05;;;12.90;99.90;;;;;;4972930;28;20039;-63
2021/11/19 04:38:37;;;;;;;16.42;10.77;;;12.90;99.90;;;;;;4972672;28;20045;-64
2021/11/19 04:41:03;;;;;;;14.40;10.05;;;12.90;99.90;;;;;;4972173;28;20031;-64
2021/11/19 04:43:29;;;;;;;17.15;10.95;;;12.90;99.90;;;;;;4973873;28;20033;-64
2021/11/19 04:45:55;;;;;;;18.13;11.93;;;12.90;99.90;;;;;;4972533;28;20031;-64
2021/11/19 04:48:22;;;;;;;18.58;11.50;;;12.90;99.90;;;;;;4973584;28;20037;-64
2021/11/19 04:50:49;;;;;;;17.83;11.95;;;12.90;99.90;;;;;;4972713;28;20043;-64
2021/11/19 04:53:17;;;;;;;19.88;11.85;;;12.90;99.90;;;;;;4961341;28;20805;-63
2021/11/19 04:55:44;;;;;;;17.45;11.63;;;12.90;99.90;;;;;;4972352;28;20055;-63
2021/11/19 04:58:10;;;;;;;19.05;13.32;;;12.90;99.90;;;;;;4974194;28;20105;-64
2021/11/19 05:00:44;;;;;;;21.85;12.35;;;12.90;99.90;;;;;;4972595;28;20509;-63
2021/11/19 05:03:10;;;;;;;21.60;12.80;;;12.90;99.90;;;;;;4960478;28;20039;-63
2021/11/19 05:05:38;;;;;;;24.88;15.82;;;12.80;99.90;;;;;;4961721;28;20089;-64
2021/11/19 05:08:05;;;;;;;17.10;11.57;;;12.80;99.90;;;;;;4973522;28;20030;-63
2021/11/19 05:10:33;;;;;;;20.50;13.77;;;12.80;99.90;;;;;;4955329;28;20085;-63
2021/11/19 05:13:00;;;;;;;20.45;12.98;;;12.80;99.90;;;;;;4973535;28;20067;-64
2021/11/19 05:15:28;;;;;;;19.98;14.07;;;12.80;99.90;;;;;;4971954;28;20115;-63
2021/11/19 05:17:54;;;;;;;20.67;12.38;;;12.80;99.90;;;;;;4971623;28;20034;-63
2021/11/19 05:20:22;;;;;;;17.08;11.18;;;12.80;99.90;;;;;;4968333;28;20106;-63
2021/11/19 05:22:49;;;;;;;22.08;13.40;;;12.80;99.90;;;;;;4954207;29;20038;-63
2021/11/19 05:25:17;;;;;;;22.52;12.82;;;12.90;99.90;;;;;;4960545;28;20027;-63
2021/11/19 05:27:44;;;;;;;24.25;13.43;;;12.90;99.90;;;;;;4954112;29;20058;-63
2021/11/19 05:30:11;;;;;;;20.45;11.98;;;12.90;99.90;;;;;;4970941;28;20039;-63
2021/11/19 05:32:36;;;;;;;20.95;12.45;;;12.90;99.90;;;;;;4971445;28;20045;-63
2021/11/19 05:35:03;;;;;;;19.33;11.88;;;12.90;99.90;;;;;;4972480;28;20049;-64
2021/11/19 05:37:28;;;;;;;22.10;13.50;;;12.80;99.90;;;;;;4972591;28;20035;-63
2021/11/19 05:39:54;;;;;;;23.35;13.07;;;12.80;99.90;;;;;;4972558;28;20521;-63
2021/11/19 05:42:20;;;;;;;15.80;11.32;;;12.80;99.90;;;;;;4971743;28;20106;-63
2021/11/19 05:44:45;;;;;;;17.02;10.57;;;12.80;99.90;;;;;;4948481;28;20457;-63
2021/11/19 05:47:11;;;;;;;21.42;13.45;;;12.90;99.90;;;;;;4964472;28;20122;-63
2021/11/19 05:49:38;;;;;;;19.92;11.88;;;12.90;99.90;;;;;;4969689;28;20025;-63
2021/11/19 05:52:06;;;;;;;17.65;11.43;;;12.90;99.90;;;;;;4955717;28;20077;-63
2021/11/19 05:54:33;;;;;;;19.23;12.05;;;12.90;99.90;;;;;;4971093;28;20035;-62
2021/11/19 05:57:00;;;;;;;19.30;10.95;;;13.00;99.90;;;;;;4971091;28;20520;-62
2021/11/19 05:59:25;;;;;;;17.05;10.45;;;13.00;99.90;;;;;;4972419;28;20026;-63
2021/11/19 06:01:51;;;;;;;15.07;10.13;;;13.00;99.90;;;;;;4963983;28;20035;-63
2021/11/19 06:04:17;;;;;;;16.33;10.93;;;13.00;99.90;;;;;;4954618;28;20028;-62
2021/11/19 06:06:43;;;;;;;16.48;10.93;;;13.00;99.90;;;;;;4971542;28;20399;-62
2021/11/19 06:09:16;;;;;;;20.00;10.63;;;13.10;99.90;;;;;;4971445;28;20023;-63
2021/11/19 06:11:49;;;;;;;14.48;10.48;;;13.10;99.90;;;;;;4971535;28;20033;-63
2021/11/19 06:14:42;;;;;;;14.38;10.07;;;13.00;99.90;;;;;;4972714;28;20027;-62
2021/11/19 06:17:12;;;;;;;15.63;10.43;;;13.10;99.90;;;;;;4971998;28;20117;-62
2021/11/19 06:19:42;;;;;;;15.23;10.00;;;13.10;99.90;;;;;;4971761;28;20023;-63
2021/11/19 06:22:11;;;;;;;14.93;10.15;;;13.10;99.90;;;;;;4972437;28;20472;-62
2021/11/19 06:24:41;;;;;;;13.40;9.38;;;13.10;99.90;;;;;;4955869;28;20394;-62
2021/11/19 06:27:07;;;;;;;17.10;11.35;;;13.10;99.90;;;;;;4971381;28;20026;-63
2021/11/19 06:29:33;;;;;;;17.15;10.23;;;13.10;99.90;;;;;;4955312;28;20023;-63
2021/11/19 06:31:59;;;;;;;13.93;9.38;;;13.20;99.90;;;;;;4968743;28;20035;-63
2021/11/19 06:34:26;;;;;;;16.58;9.98;;;13.20;99.90;;;;;;4969161;28;20050;-63
2021/11/19 06:36:52;;;;;;;14.93;9.82;;;13.20;99.90;;;;;;4970756;28;20042;-64
2021/11/19 06:39:18;;;;;;;15.40;10.18;;;13.20;99.90;;;;;;4972123;28;20030;-64
2021/11/19 06:41:44;;;;;;;15.60;9.52;;;13.20;99.90;;;;;;4971707;28;20377;-64
2021/11/19 06:44:11;;;;;;;14.25;9.93;;;13.20;99.90;;;;;;4971712;28;20038;-63
2021/11/19 06:46:37;;;;;;;13.32;8.82;;;13.20;99.90;;;;;;4971463;28;20226;-63
2021/11/19 06:49:04;;;;;;;15.10;9.88;;;13.20;99.90;;;;;;4972230;28;20027;-63
2021/11/19 06:51:31;;;;;;;15.40;9.60;;;13.20;99.90;;;;;;4970837;28;20524;-62
2021/11/19 06:53:56;;;;;;;12.60;9.57;;;13.20;99.90;;;;;;4971870;28;20130;-63
2021/11/19 06:56:23;;;;;;;13.75;9.63;;;13.30;99.90;;;;;;4968615;28;20859;-63
2021/11/19 06:58:49;;;;;;;12.60;9.25;;;13.30;99.90;;;;;;4967833;28;20425;-63
2021/11/19 07:01:17;;;;;;;13.13;9.82;;;13.30;99.90;;;;;;4974467;28;20054;-63
2021/11/19 07:03:43;;;;;;;12.40;8.73;;;13.30;99.90;;;;;;4958436;28;20031;-63
2021/11/19 07:06:09;;;;;;;11.52;8.50;;;13.30;99.90;;;;;;4974918;28;20027;-62
2021/11/19 07:08:35;;;;;;;12.40;8.88;;;13.30;99.90;;;;;;4975311;28;20023;-62
2021/11/19 07:11:05;;;;;;;14.20;9.68;;;13.30;99.90;;;;;;4965186;28;20027;-62
2021/11/19 07:13:31;;;;;;;12.95;9.57;;;13.30;99.90;;;;;;4974673;28;20038;-63
2021/11/19 07:15:56;;;;;;;12.98;8.68;;;13.30;99.90;;;;;;4974886;28;20018;-63
2021/11/19 07:18:22;;;;;;;14.13;9.95;;;13.40;99.90;;;;;;4975538;28;20130;-64
2021/11/19 07:20:49;;;;;;;12.30;8.52;;;13.40;99.90;;;;;;4974950;28;20027;-65
2021/11/19 07:23:15;;;;;;;11.55;8.40;;;13.40;99.90;;;;;;4975281;28;20133;-64
2021/11/19 07:25:41;;;;;;;13.95;8.02;;;13.40;99.90;;;;;;4969160;28;20446;-65
2021/11/19 07:28:08;;;;;;;13.85;8.27;;;13.40;99.90;;;;;;4970392;28;20039;-65
2021/11/19 07:30:44;;;;;;;12.15;7.97;;;13.40;99.90;;;;;;4972175;28;20031;-63
2021/11/19 07:33:10;;;;;;;11.75;8.25;;;13.40;99.90;;;;;;4975149;28;20030;-63
2021/11/19 07:35:37;;;;;;;16.88;8.00;;;13.40;99.90;;;;;;4971021;28;20050;-64
2021/11/19 07:38:05;;;;;;;10.90;7.07;;;13.40;99.90;;;;;;4963676;28;20049;-64
2021/11/19 07:40:35;;;;;;;13.10;7.47;;;13.40;99.90;;;;;;4970798;28;20158;-64
2021/11/19 07:43:00;;;;;;;9.52;6.32;;;13.40;99.90;;;;;;4961981;28;20027;-64
2021/11/19 07:45:29;;;;;;;9.70;7.22;;;13.40;99.90;;;;;;4972673;28;20033;-64
2021/11/19 07:47:54;;;;;;;10.35;7.53;;;13.40;99.90;;;;;;4975016;28;20033;-64
2021/11/19 07:50:23;;;;;;;11.77;7.13;;;13.40;99.90;;;;;;4949736;28;20026;-64
2021/11/19 07:52:49;;;;;;;11.63;7.43;;;13.40;99.90;;;;;;4972628;28;20039;-64
2021/11/19 07:55:15;;;;;;;10.20;7.18;;;13.40;99.90;;;;;;4964268;28;20047;-63
2021/11/19 07:57:41;;;;;;;10.80;6.85;;;13.50;99.90;;;;;;4964803;28;20051;-63
2021/11/19 08:00:11;;;;;;;12.75;7.28;;;13.50;99.90;;;;;;4951184;28;20023;-64
2021/11/19 08:02:37;;;;;;;12.32;6.95;;;13.50;99.90;;;;;;4972968;28;20039;-64
2021/11/19 08:05:05;;;;;;;10.32;7.30;;;13.60;99.90;;;;;;4967196;28;20033;-64
2021/11/19 08:07:31;;;;;;;10.10;7.07;;;13.70;99.90;;;;;;4965431;28;20046;-64
2021/11/19 08:09:58;;;;;;;10.27;7.03;;;13.60;99.90;;;;;;4972381;28;20060;-64
2021/11/19 08:12:23;;;;;;;13.27;7.97;;;13.70;99.90;;;;;;4964178;28;20035;-64
2021/11/19 08:14:49;;;;;;;10.55;7.40;;;13.70;99.90;;;;;;4968319;28;20031;-64
2021/11/19 08:17:33;;;;;;;10.38;6.32;;;13.70;99.90;;;;;;4957147;28;20037;-64
2021/11/19 08:20:00;;;;;;;11.25;7.13;;;13.70;99.90;;;;;;4972660;28;20045;-63
2021/11/19 08:22:26;;;;;;;11.80;7.68;;;13.70;99.90;;;;;;4972501;28;20039;-63
2021/11/19 08:24:53;;;;;;;10.77;6.95;;;13.70;99.90;;;;;;4972168;28;20030;-63
2021/11/19 08:27:23;;;;;;;10.15;6.72;;;13.70;99.90;;;;;;4967257;28;20070;-63
2021/11/19 08:29:52;;;;;;;9.70;7.18;;;13.70;99.90;;;;;;4966151;28;20494;-63
2021/11/19 08:32:19;;;;;;;14.10;7.78;;;13.70;99.90;;;;;;4962753;28;20090;-63
2021/11/19 08:34:45;;;;;;;13.10;7.35;;;13.80;99.90;;;;;;4969584;28;20034;-63
2021/11/19 08:37:11;;;;;;;10.77;6.88;;;13.80;99.90;;;;;;4968829;28;20039;-63
2021/11/19 08:39:37;;;;;;;9.23;6.95;;;13.80;99.90;;;;;;4967103;28;20027;-64
2021/11/19 08:42:06;;;;;;;12.60;7.03;;;13.80;99.90;;;;;;4969360;28;20489;-64
2021/11/19 08:44:31;;;;;;;12.38;6.80;;;13.80;99.90;;;;;;4968056;28;20442;-64
2021/11/19 08:46:58;;;;;;;11.43;7.63;;;13.80;99.90;;;;;;4970085;28;20038;-64
2021/11/19 08:49:28;;;;;;;11.98;7.28;;;13.70;99.90;;;;;;4962598;28;20399;-64
2021/11/19 08:51:54;;;;;;;8.45;6.15;;;13.70;99.90;;;;;;4972816;28;20030;-64
2021/11/19 08:54:20;;;;;;;12.68;7.72;;;13.80;99.90;;;;;;4972921;28;20374;-64
2021/11/19 08:56:53;;;;;;;9.90;7.10;;;13.80;99.90;;;;;;4972617;28;20105;-64
2021/11/19 08:59:22;;;;;;;11.23;7.38;;;13.80;99.90;;;;;;4962448;28;20035;-64
2021/11/19 09:01:50;;;;;;;9.90;6.50;;;13.80;99.90;;;;;;4969469;28;20026;-64
2021/11/19 09:04:17;;;;;;;11.02;7.35;;;13.90;99.90;;;;;;4963065;28;20039;-64
2021/11/19 09:06:43;;;;;;;9.80;7.88;;;13.80;99.90;;;;;;4965007;28;20057;-64
2021/11/19 09:09:10;;;;;;;11.18;7.13;;;13.80;99.90;;;;;;4971231;28;20030;-63
2021/11/19 09:11:36;;;;;;;11.10;7.43;;;13.80;99.90;;;;;;4961190;28;20541;-63
2021/11/19 09:14:03;;;;;;;11.20;7.28;;;13.90;99.90;;;;;;4972830;28;20090;-64
2021/11/19 09:17:01;;;;;;;10.27;7.90;;;13.90;99.90;;;;;;4961040;28;20125;-63
2021/11/19 09:19:42;;;;;;;12.18;8.13;;;13.90;99.90;;;;;;4932651;28;20101;-63
2021/11/19 09:22:31;;;;;;;10.55;7.18;;;13.90;99.90;;;;;;4964871;28;20437;-64
2021/11/19 09:24:58;;;;;;;12.75;7.32;;;13.90;99.90;;;;;;4974677;28;20034;-64
2021/11/19 09:27:24;;;;;;;13.98;7.88;;;13.80;99.90;;;;;;4960581;28;20069;-64
2021/11/19 09:29:52;;;;;;;11.00;7.43;;;13.90;99.90;;;;;;4962027;28;20487;-64
2021/11/19 09:32:20;;;;;;;13.35;7.95;;;13.90;99.90;;;;;;4950929;28;20030;-64
2021/11/19 09:34:48;;;;;;;12.00;8.05;;;13.80;99.90;;;;;;4966092;28;20046;-63
2021/11/19 09:37:16;;;;;;;12.38;7.72;;;13.90;99.90;;;;;;4956569;28;20032;-63
2021/11/19 09:39:47;;;;;;;14.77;7.75;;;13.90;99.90;;;;;;4943246;28;20065;-63
2021/11/19 09:42:39;;;;;;;11.43;7.40;;;14.00;99.90;;;;;;4968621;28;20023;-64
2021/11/19 09:45:26;;;;;;;17.35;8.32;;;13.90;99.90;;;;;;4969519;28;20030;-65
2021/11/19 09:48:37;;;;;;;20.70;9.07;;;14.00;99.90;;;;;;4956253;28;20049;-64
2021/11/19 09:51:40;;;;;;;14.18;8.98;;;14.00;99.90;;;;;;4968476;28;20039;-64
2021/11/19 09:54:35;;;;;;;11.57;7.88;;;13.90;99.90;;;;;;4943589;28;20043;-63
2021/11/19 09:57:15;;;;;;;16.33;9.10;;;14.00;99.90;;;;;;4961659;28;20074;-63
2021/11/19 09:59:46;;;;;;;12.68;8.95;;;13.90;99.90;;;;;;4958545;28;20062;-62
2021/11/19 10:02:45;;;;;;;11.27;8.38;;;13.90;99.90;;;;;;4955611;28;20363;-64
2021/11/19 10:05:30;;;;;;;17.35;10.18;;;13.90;99.90;;;;;;4965185;28;20109;-63
2021/11/19 10:08:29;;;;;;;15.25;9.43;;;13.90;99.90;;;;;;4964795;28;20378;-63
2021/11/19 10:11:11;;;;;;;13.68;9.18;;;13.90;99.90;;;;;;4965780;28;20043;-63
2021/11/19 10:14:10;;;;;;;18.15;9.68;;;13.90;99.90;;;;;;4960735;28;20391;-62
2021/11/19 10:17:05;;;;;;;15.65;9.05;;;13.90;99.90;;;;;;4966679;28;21708;-63
2021/11/19 10:19:49;;;;;;;14.43;8.75;;;14.00;99.90;;;;;;4967649;28;20394;-63
2021/11/19 10:22:33;;;;;;;14.60;8.57;;;14.00;99.90;;;;;;4959167;28;20390;-62
2021/11/19 10:25:08;;;;;;;13.10;8.57;;;14.00;99.90;;;;;;4957029;28;20034;-63
2021/11/19 10:27:51;;;;;;;13.43;8.32;;;14.00;99.90;;;;;;4965267;28;20515;-63
2021/11/19 10:30:38;;;;;;;15.38;8.63;;;13.90;99.90;;;;;;4970550;28;20031;-64
2021/11/19 10:33:17;;;;;;;12.30;9.18;;;13.90;99.90;;;;;;4967595;28;20438;-63
2021/11/19 10:36:11;;;;;;;19.27;10.98;;;14.00;99.90;;;;;;4972264;28;20045;-63
2021/11/19 10:39:01;;;;;;;18.67;10.23;;;14.00;99.90;;;;;;4966323;28;20839;-63
2021/11/19 10:42:04;;;;;;;17.75;9.80;;;14.00;99.90;;;;;;4961798;28;20035;-63
2021/11/19 10:45:07;;;;;;;18.50;10.27;;;14.00;99.90;;;;;;4961688;28;20390;-63
2021/11/19 10:48:06;;;;;;;17.52;10.55;;;14.00;99.90;;;;;;4957362;28;20027;-63
2021/11/19 10:51:09;;;;;;;16.02;9.50;;;14.00;99.90;;;;;;4973630;28;20445;-63
2021/11/19 10:53:57;;;;;;;15.73;9.90;;;14.00;99.90;;;;;;4953675;28;20038;-63
2021/11/19 10:56:50;;;;;;;18.83;9.55;;;13.90;99.90;;;;;;4972921;28;20446;-63
2021/11/19 10:59:28;;;;;;;14.02;9.52;;;14.00;99.90;;;;;;4956695;28;20106;-63
2021/11/19 11:02:24;;;;;;;16.20;8.82;;;13.90;99.90;;;;;;4969632;28;20520;-63
2021/11/19 11:04:58;;;;;;;19.92;13.73;;;14.00;99.90;;;;;;4957110;28;20042;-63
2021/11/19 11:07:29;;;;;;;19.10;12.00;;;14.00;99.90;;;;;;4967435;28;20528;-63
2021/11/19 11:09:57;;;;;;;15.77;10.48;;;14.00;99.90;;;;;;4971708;28;20381;-63
2021/11/19 11:12:45;;;;;;;12.52;8.93;;;14.00;99.90;;;;;;4959638;28;20482;-63
2021/11/19 11:15:31;;;;;;;14.18;9.27;;;14.10;99.90;;;;;;4966190;28;20034;-63
2021/11/19 11:18:14;;;;;;;14.68;8.88;;;14.00;99.90;;;;;;4959931;28;20553;-64
2021/11/19 11:20:41;;;;;;;12.45;8.30;;;14.10;99.90;;;;;;4966894;28;20394;-63
2021/11/19 11:23:25;;;;;;;13.98;9.07;;;14.10;99.90;;;;;;4962356;28;20034;-64
2021/11/19 11:26:26;;;;;;;16.77;9.38;;;14.10;99.90;;;;;;4967084;28;20082;-64
2021/11/19 11:29:16;;;;;;;14.75;8.38;;;14.10;99.90;;;;;;4963056;28;20027;-64
2021/11/19 11:32:12;;;;;;;15.02;9.75;;;14.10;99.90;;;;;;4964765;28;20031;-65
2021/11/19 11:34:44;;;;;;;13.25;9.73;;;14.20;99.90;;;;;;4963317;28;20030;-64
2021/11/19 11:37:21;;;;;;;14.70;9.23;;;14.20;99.90;;;;;;4965783;28;20043;-63
2021/11/19 11:39:56;;;;;;;14.55;8.80;;;14.20;99.90;;;;;;4972587;28;20556;-64
2021/11/19 11:42:30;;;;;;;13.25;8.70;;;14.20;99.90;;;;;;4965594;28;20059;-64
2021/11/19 11:45:01;;;;;;;17.30;9.80;;;14.10;99.90;;;;;;4969568;28;20027;-64
2021/11/19 11:47:43;;;;;;;17.35;9.95;;;14.10;99.90;;;;;;4956397;28;20417;-64
2021/11/19 11:50:31;;;;;;;17.83;9.48;;;14.20;99.90;;;;;;4949566;28;20165;-64
2021/11/19 11:53:17;;;;;;;11.55;8.45;;;14.20;99.90;;;;;;4971915;28;20489;-64
2021/11/19 11:56:29;;;;;;;12.57;8.23;;;14.20;99.90;;;;;;4969680;28;20122;-65
2021/11/19 11:59:00;;;;;;;12.77;8.10;;;14.20;99.90;;;;;;4931063;28;20043;-64
2021/11/19 12:01:35;;;;;;;15.07;8.13;;;14.20;99.90;;;;;;4972630;28;20042;-64
2021/11/19 12:04:15;;;;;;;15.88;9.35;;;14.20;99.90;;;;;;4965031;28;20063;-64
2021/11/19 12:06:53;;;;;;;12.10;8.23;;;14.20;99.90;;;;;;4966248;28;20071;-65
2021/11/19 12:09:28;;;;;;;13.82;8.10;;;14.20;99.90;;;;;;4962081;28;20042;-64
2021/11/19 12:12:15;;;;;;;15.50;8.05;;;14.20;99.90;;;;;;4968654;28;20031;-63
2021/11/19 12:14:50;;;;;;;16.33;8.90;;;14.30;99.90;;;;;;4971457;28;20027;-64
2021/11/19 12:17:21;;;;;;;14.07;8.20;;;14.30;99.90;;;;;;4971013;28;20053;-64
2021/11/19 12:20:08;;;;;;;12.07;7.43;;;14.30;99.90;;;;;;4970233;28;20109;-64
2021/11/19 12:22:36;;;;;;;11.80;6.78;;;14.30;99.90;;;;;;4959030;28;20106;-64
2021/11/19 12:25:23;;;;;;;12.25;7.97;;;14.30;99.90;;;;;;4961194;28;20110;-64
2021/11/19 12:27:56;;;;;;;10.75;6.88;;;14.30;99.90;;;;;;4947586;28;20031;-64
2021/11/19 12:30:30;;;;;;;11.32;6.40;;;14.30;99.80;;;;;;4969848;28;20022;-64
2021/11/19 12:33:28;;;;;;;12.13;6.15;;;14.30;99.70;;;;;;4965598;28;20047;-64
2021/11/19 12:36:16;;;;;;;10.75;6.40;;;14.40;99.70;;;;;;4961630;28;20039;-64
2021/11/19 12:38:46;;;;;;;9.45;6.10;;;14.40;99.70;;;;;;4963705;28;20050;-64
2021/11/19 12:41:19;;;;;;;10.73;6.10;;;14.40;99.60;;;;;;4967837;28;20077;-64
2021/11/19 12:43:50;;;;;;;12.35;6.10;;;14.40;99.50;;;;;;4960231;28;20087;-64
2021/11/19 12:46:33;;;;;;;9.93;6.35;;;14.40;99.50;;;;;;4970142;28;20466;-64
2021/11/19 12:49:45;;;;;;;11.82;6.13;;;14.40;99.40;;;;;;4962040;28;20058;-65
2021/11/19 12:52:22;;;;;;;10.52;5.53;;;14.50;99.40;;;;;;4971313;28;20359;-65
2021/11/19 12:54:57;;;;;;;11.07;6.10;;;14.40;99.40;;;;;;4969903;28;20077;-65
2021/11/19 12:57:42;;;;;;;;;;;14.40;99.30;;;;;;4965643;28;20043;-65
2021/11/19 13:00:21;;;;;;;;;;;14.40;99.40;;;;;;4970922;28;19910;-64
2021/11/19 13:03:08;;;;;;;11.35;5.90;;;14.40;99.40;;;;;;4962708;28;19964;-65